createdAt,value
2023-03-04T00:01:07.489Z,68.40
2023-03-04T00:03:37.416Z,68.40
2023-03-04T00:06:06.124Z,67.30
2023-03-04T00:08:34.908Z,66.20
2023-03-04T00:11:03.087Z,66.10
2023-03-04T00:13:31.372Z,64.10
2023-03-04T00:15:59.740Z,54.40
2023-03-04T00:18:27.926Z,63.50
2023-03-04T00:20:56.211Z,52.80
2023-03-04T00:23:24.692Z,58.30
2023-03-04T00:25:53.076Z,63.90
2023-03-04T00:28:21.464Z,54.30
2023-03-04T00:30:49.848Z,60.50
2023-03-04T00:33:18.234Z,64.50
2023-03-04T00:35:46.557Z,59.40
2023-03-04T00:38:14.895Z,62.80
2023-03-04T00:40:44.550Z,63.60
2023-03-04T00:43:13.306Z,59.90
2023-03-04T00:45:42.129Z,61.50
2023-03-04T00:48:10.686Z,57.40
2023-03-04T00:50:39.167Z,62.10
2023-03-04T00:53:07.558Z,63.30
2023-03-04T00:55:36.298Z,56.40
2023-03-04T00:58:04.841Z,54.20
2023-03-04T01:00:33.118Z,61.00
2023-03-04T01:03:01.502Z,66.70
2023-03-04T01:05:29.886Z,61.30
2023-03-04T01:07:58.163Z,68.70
2023-03-04T01:10:26.444Z,63.60
2023-03-04T01:12:54.629Z,57.50
2023-03-04T01:15:23.425Z,56.40
2023-03-04T01:17:51.844Z,81.20
2023-03-04T01:20:20.289Z,70.10
2023-03-04T01:22:48.573Z,68.90
2023-03-04T01:25:16.956Z,66.70
2023-03-04T01:27:45.237Z,60.80
2023-03-04T01:30:13.640Z,57.40
2023-03-04T01:32:42.028Z,60.80
2023-03-04T01:35:10.801Z,67.40
2023-03-04T01:37:39.618Z,58.40
2023-03-04T01:40:09.879Z,58.30
2023-03-04T01:42:40.157Z,55.40
2023-03-04T01:45:16.730Z,67.20
2023-03-04T01:47:50.595Z,58.60
2023-03-04T01:52:47.511Z,57.30
2023-03-04T01:55:19.268Z,63.30
2023-03-04T01:57:50.123Z,62.20
2023-03-04T02:00:26.904Z,62.20
2023-03-04T02:03:08.032Z,57.30
2023-03-04T02:05:38.696Z,59.70
2023-03-04T02:08:08.222Z,60.40
2023-03-04T02:10:39.367Z,59.70
2023-03-04T02:13:07.633Z,66.90
2023-03-04T02:15:36.127Z,67.20
2023-03-04T02:18:23.674Z,63.70
2023-03-04T02:21:19.973Z,59.60
2023-03-04T02:24:15.573Z,53.80
2023-03-04T02:26:47.018Z,55.50
2023-03-04T02:29:17.202Z,66.30
2023-03-04T02:31:49.009Z,55.40
2023-03-04T02:34:30.107Z,56.70
2023-03-04T02:36:59.127Z,60.30
2023-03-04T02:39:33.303Z,60.10
2023-03-04T02:42:03.333Z,67.20
2023-03-04T02:44:37.495Z,68.40
2023-03-04T02:47:09.273Z,61.00
2023-03-04T02:49:41.322Z,61.30
2023-03-04T02:52:14.671Z,54.20
2023-03-04T02:54:43.112Z,59.20
2023-03-04T02:57:13.984Z,57.80
2023-03-04T02:59:43.924Z,66.80
2023-03-04T03:02:16.093Z,55.90
2023-03-04T03:04:44.396Z,69.20
2023-03-04T03:07:14.804Z,64.80
2023-03-04T03:09:43.302Z,65.80
2023-03-04T03:12:11.675Z,59.30
2023-03-04T03:14:40.161Z,63.60
2023-03-04T03:17:10.567Z,72.40
2023-03-04T03:19:38.775Z,66.40
2023-03-04T03:22:08.286Z,59.20
2023-03-04T03:24:37.192Z,69.40
2023-03-04T03:27:05.478Z,57.20
2023-03-04T03:29:34.350Z,56.60
2023-03-04T03:32:02.548Z,67.30
2023-03-04T03:34:30.815Z,56.60
2023-03-04T03:36:59.211Z,64.80
2023-03-04T03:39:27.590Z,60.80
2023-03-04T03:41:56.377Z,68.00
2023-03-04T03:44:24.759Z,56.80
2023-03-04T03:46:53.252Z,54.10
2023-03-04T03:49:21.938Z,64.40
2023-03-04T03:51:50.530Z,60.30
2023-03-04T03:54:18.824Z,64.80
2023-03-04T03:56:47.398Z,83.90
2023-03-04T03:59:15.684Z,62.90
2023-03-04T04:01:44.094Z,64.90
2023-03-04T04:04:12.350Z,197.20
2023-03-04T04:06:40.639Z,60.70
2023-03-04T04:09:08.809Z,67.00
2023-03-04T04:11:37.299Z,67.20
2023-03-04T04:14:05.581Z,57.20
2023-03-04T04:16:33.847Z,64.60
2023-03-04T04:19:02.257Z,61.00
2023-03-04T04:21:30.558Z,53.90
2023-03-04T04:23:58.809Z,58.80
2023-03-04T04:26:29.447Z,58.70
2023-03-04T04:28:57.938Z,58.40
2023-03-04T04:31:26.124Z,67.50
2023-03-04T04:33:54.498Z,73.90
2023-03-04T04:36:22.880Z,67.60
2023-03-04T04:39:05.286Z,60.60
2023-03-04T04:41:43.185Z,66.90
2023-03-04T04:44:12.965Z,69.30
2023-03-04T04:46:42.162Z,64.60
2023-03-04T04:49:11.435Z,64.60
2023-03-04T04:51:39.915Z,71.70
2023-03-04T04:54:08.400Z,60.40
2023-03-04T04:56:37.072Z,68.80
2023-03-04T04:59:08.846Z,60.10
2023-03-04T05:01:37.577Z,67.60
2023-03-04T05:04:06.441Z,55.30
2023-03-04T05:06:34.811Z,63.50
2023-03-04T05:09:04.635Z,64.20
2023-03-04T05:11:33.211Z,63.70
2023-03-04T05:14:01.411Z,76.50
2023-03-04T05:16:30.187Z,69.50
2023-03-04T05:18:58.581Z,104.30
2023-03-04T05:21:26.858Z,77.30
2023-03-04T05:23:55.344Z,101.80
2023-03-04T05:26:23.522Z,98.50
2023-03-04T05:28:51.912Z,97.60
2023-03-04T05:31:20.440Z,97.90
2023-03-04T05:33:48.682Z,84.50
2023-03-04T05:36:17.176Z,89.30
2023-03-04T05:38:45.757Z,87.90
2023-03-04T05:41:14.042Z,90.70
2023-03-04T05:43:43.064Z,92.80
2023-03-04T05:46:17.361Z,113.70
2023-03-04T05:48:45.846Z,91.40
2023-03-04T05:51:14.225Z,82.60
2023-03-04T05:53:42.508Z,88.70
2023-03-04T05:56:16.316Z,81.00
2023-03-04T05:58:45.216Z,97.40
2023-03-04T06:01:14.713Z,94.20
2023-03-04T06:03:43.787Z,100.10
2023-03-04T06:06:12.112Z,90.30
2023-03-04T06:08:40.383Z,76.10
2023-03-04T06:11:09.060Z,77.80
2023-03-04T06:13:38.482Z,72.80
2023-03-04T06:16:07.518Z,72.10
2023-03-04T06:18:35.988Z,72.50
2023-03-04T06:21:04.796Z,77.30
2023-03-04T06:23:33.148Z,107.50
2023-03-04T06:26:02.016Z,81.40
2023-03-04T06:28:30.594Z,81.30
2023-03-04T06:30:59.019Z,86.90
2023-03-04T06:33:27.519Z,77.40
2023-03-04T06:35:57.453Z,74.00
2023-03-04T06:38:26.997Z,83.90
2023-03-04T06:40:57.461Z,78.20
2023-03-04T06:43:26.211Z,77.80
2023-03-04T06:45:54.855Z,83.10
2023-03-04T06:48:23.645Z,78.30
2023-03-04T06:50:52.047Z,90.70
2023-03-04T06:53:20.308Z,84.00
2023-03-04T06:55:49.823Z,89.00
2023-03-04T06:58:18.409Z,78.00
2023-03-04T07:00:46.941Z,78.40
2023-03-04T07:03:15.379Z,80.20
2023-03-04T07:05:44.172Z,77.60
2023-03-04T07:08:12.864Z,96.90
2023-03-04T07:10:41.572Z,75.00
2023-03-04T07:13:09.842Z,72.40
2023-03-04T07:15:38.436Z,67.40
2023-03-04T07:18:06.718Z,69.30
2023-03-04T07:20:35.202Z,71.10
2023-03-04T07:23:03.487Z,61.40
2023-03-04T07:25:32.179Z,67.60
2023-03-04T07:28:10.397Z,72.10
2023-03-04T07:30:38.868Z,69.30
2023-03-04T07:33:07.459Z,66.80
2023-03-04T07:35:56.037Z,71.70
2023-03-04T07:38:36.763Z,64.20
2023-03-04T07:41:05.772Z,58.40
2023-03-04T07:43:34.089Z,70.30
2023-03-04T07:46:03.130Z,65.20
2023-03-04T07:48:32.050Z,73.60
2023-03-04T07:51:21.515Z,73.80
2023-03-04T07:53:52.257Z,70.00
2023-03-04T07:56:24.139Z,75.60
2023-03-04T07:58:56.488Z,70.00
2023-03-04T08:01:34.795Z,69.70
2023-03-04T08:04:05.557Z,46.90
2023-03-04T08:06:34.701Z,54.80
2023-03-04T08:09:08.241Z,47.00
2023-03-04T08:11:38.288Z,49.90
2023-03-04T08:14:07.167Z,50.60
2023-03-04T08:16:35.578Z,39.30
2023-03-04T08:19:04.838Z,47.70
2023-03-04T08:21:33.911Z,46.30
2023-03-04T08:24:08.428Z,45.10
2023-03-04T08:26:46.072Z,47.40
2023-03-04T08:29:23.662Z,45.50
2023-03-04T08:31:54.350Z,39.40
2023-03-04T08:34:25.649Z,43.50
2023-03-04T08:36:54.784Z,40.20
2023-03-04T08:39:23.237Z,40.20
2023-03-04T08:41:51.844Z,41.20
2023-03-04T08:44:20.728Z,37.50
2023-03-04T08:46:49.120Z,45.20
2023-03-04T08:49:17.489Z,43.40
2023-03-04T08:51:46.606Z,51.60
2023-03-04T08:54:14.981Z,38.90
2023-03-04T08:56:43.591Z,32.80
2023-03-04T08:59:12.222Z,37.90
2023-03-04T09:01:40.694Z,43.90
2023-03-04T09:04:09.255Z,40.10
2023-03-04T09:06:41.712Z,45.30
2023-03-04T09:09:10.012Z,46.00
2023-03-04T09:11:38.762Z,37.50
2023-03-04T09:14:07.154Z,33.50
2023-03-04T09:16:44.236Z,33.70
2023-03-04T09:19:16.117Z,31.80
2023-03-04T09:21:44.600Z,37.30
2023-03-04T09:24:13.190Z,41.10
2023-03-04T09:26:41.472Z,36.90
2023-03-04T09:29:10.473Z,34.30
2023-03-04T09:31:38.921Z,36.60
2023-03-04T09:34:07.457Z,39.20
2023-03-04T09:36:35.753Z,38.30
2023-03-04T09:39:04.992Z,35.90
2023-03-04T09:42:07.968Z,34.00
2023-03-04T09:44:49.698Z,33.60
2023-03-04T09:47:21.863Z,35.40
2023-03-04T09:50:11.164Z,33.30
2023-03-04T09:53:08.070Z,31.70
2023-03-04T09:55:42.587Z,27.30
2023-03-04T09:58:26.844Z,34.50
2023-03-04T10:01:17.431Z,27.50
2023-03-04T10:03:52.320Z,34.60
2023-03-04T10:06:23.296Z,25.10
2023-03-04T10:09:02.945Z,31.80
2023-03-04T10:11:43.204Z,41.40
2023-03-04T10:14:23.859Z,25.20
2023-03-04T10:16:53.575Z,26.90
2023-03-04T10:19:44.980Z,21.60
2023-03-04T10:22:41.424Z,31.60
2023-03-04T10:25:20.680Z,33.30
2023-03-04T10:27:53.326Z,25.60
2023-03-04T10:30:53.122Z,30.10
2023-03-04T10:33:25.964Z,25.80
2023-03-04T10:36:28.971Z,23.40
2023-03-04T10:39:08.199Z,26.70
2023-03-04T10:41:37.287Z,28.60
2023-03-04T10:44:08.964Z,21.10
2023-03-04T10:46:49.219Z,24.10
2023-03-04T10:49:25.268Z,28.40
2023-03-04T10:52:21.799Z,25.60
2023-03-04T10:54:54.075Z,21.70
2023-03-04T10:57:38.116Z,20.70
2023-03-04T11:00:18.501Z,20.80
2023-03-04T11:02:48.204Z,21.00
2023-03-04T11:05:24.828Z,21.70
2023-03-04T11:08:00.195Z,21.10
2023-03-04T11:11:16.522Z,26.00
2023-03-04T11:14:03.971Z,23.90
2023-03-04T11:16:34.929Z,25.60
2023-03-04T11:19:25.167Z,19.00
2023-03-04T11:21:55.351Z,18.80
2023-03-04T11:24:29.847Z,20.70
2023-03-04T11:26:58.149Z,23.20
2023-03-04T11:29:43.621Z,23.80
2023-03-04T11:32:22.730Z,19.60
2023-03-04T11:35:18.752Z,15.40
2023-03-04T11:38:02.404Z,18.50
2023-03-04T11:40:36.434Z,20.20
2023-03-04T11:43:16.683Z,22.40
2023-03-04T11:46:08.092Z,16.90
2023-03-04T11:48:52.069Z,21.10
2023-03-04T11:51:46.866Z,19.00
2023-03-04T11:54:24.544Z,15.90
2023-03-04T11:57:12.772Z,45.60
2023-03-04T12:00:09.490Z,17.20
2023-03-04T12:03:40.586Z,19.00
2023-03-04T12:07:00.259Z,16.10
2023-03-04T12:09:45.630Z,27.70
2023-03-04T12:12:17.272Z,18.90
2023-03-04T12:14:55.816Z,20.60
2023-03-04T12:17:38.824Z,20.50
2023-03-04T12:20:52.236Z,19.10
2023-03-04T12:23:33.616Z,16.80
2023-03-04T12:26:31.065Z,15.10
2023-03-04T12:29:02.413Z,19.50
2023-03-04T12:31:43.397Z,18.10
2023-03-04T12:34:33.376Z,20.00
2023-03-04T12:37:31.225Z,18.90
2023-03-04T12:44:45.041Z,20.70
2023-03-04T12:47:22.725Z,16.90
2023-03-04T12:50:10.538Z,17.30
2023-03-04T12:52:47.846Z,16.10
2023-03-04T12:55:19.606Z,15.90
2023-03-04T12:57:52.278Z,11.80
2023-03-04T13:00:44.606Z,15.60
2023-03-04T13:03:42.676Z,16.50
2023-03-04T13:06:43.689Z,13.30
2023-03-04T13:09:17.098Z,18.50
2023-03-04T13:11:52.748Z,13.10
2023-03-04T13:14:21.147Z,19.10
2023-03-04T13:16:54.222Z,13.00
2023-03-04T13:19:46.853Z,15.50
2023-03-04T13:22:42.616Z,17.50
2023-03-04T13:25:42.572Z,10.80
2023-03-04T13:28:11.068Z,12.70
2023-03-04T13:30:42.320Z,13.40
2023-03-04T13:33:16.278Z,9.60
2023-03-04T13:35:50.438Z,8.40
2023-03-04T13:38:30.920Z,15.20
2023-03-04T13:41:23.220Z,12.10
2023-03-04T13:43:58.617Z,16.30
2023-03-04T13:46:27.845Z,11.70
2023-03-04T13:48:56.558Z,17.20
2023-03-04T13:51:40.606Z,10.90
2023-03-04T13:54:17.069Z,16.60
2023-03-04T13:57:08.997Z,12.80
2023-03-04T13:59:46.690Z,17.80
2023-03-04T14:02:15.982Z,17.30
2023-03-04T14:04:54.212Z,17.00
2023-03-04T14:07:27.601Z,17.20
2023-03-04T14:09:57.411Z,12.60
2023-03-04T14:12:28.763Z,13.40
2023-03-04T14:15:00.834Z,14.20
2023-03-04T14:17:35.330Z,15.40
2023-03-04T14:20:05.657Z,13.50
2023-03-04T14:22:40.220Z,14.00
2023-03-04T14:25:14.440Z,15.50
2023-03-04T14:27:42.739Z,14.10
2023-03-04T14:30:39.119Z,15.30
2023-03-04T14:33:18.444Z,13.30
2023-03-04T14:35:53.466Z,13.70
2023-03-04T14:38:39.640Z,13.30
2023-03-04T14:41:21.283Z,13.20
2023-03-04T14:44:13.136Z,21.10
2023-03-04T14:47:06.077Z,15.20
2023-03-04T14:49:49.882Z,17.00
2023-03-04T14:52:39.963Z,17.30
2023-03-04T14:55:15.125Z,20.90
2023-03-04T14:58:01.941Z,13.90
2023-03-04T15:00:35.773Z,16.70
2023-03-04T15:03:21.730Z,15.60
2023-03-04T15:06:06.928Z,17.40
2023-03-04T15:08:41.281Z,14.60
2023-03-04T15:11:22.786Z,21.20
2023-03-04T15:13:54.893Z,13.10
2023-03-04T15:16:27.097Z,15.00
2023-03-04T15:19:00.628Z,12.50
2023-03-04T15:21:38.145Z,13.40
2023-03-04T15:24:10.181Z,13.40
2023-03-04T15:26:40.895Z,16.80
2023-03-04T15:29:17.865Z,10.90
2023-03-04T15:31:51.874Z,15.00
2023-03-04T15:34:20.816Z,11.80
2023-03-04T15:36:51.146Z,19.10
2023-03-04T15:39:24.191Z,17.60
2023-03-04T15:42:14.214Z,17.30
2023-03-04T15:44:42.578Z,20.00
2023-03-04T15:47:13.971Z,17.40
2023-03-04T15:49:44.667Z,19.70
2023-03-04T15:52:18.593Z,23.90
2023-03-04T15:54:49.053Z,21.80
2023-03-04T15:57:35.507Z,25.00
2023-03-04T16:00:04.416Z,29.00
2023-03-04T16:02:39.938Z,32.40
2023-03-04T16:05:09.635Z,28.30
2023-03-04T16:07:40.725Z,29.10
2023-03-04T16:10:18.719Z,32.50
2023-03-04T16:12:47.047Z,36.70
2023-03-04T16:15:21.945Z,40.40
2023-03-04T16:17:51.140Z,45.40
2023-03-04T16:20:22.899Z,41.90
2023-03-04T16:22:55.187Z,62.60
2023-03-04T16:25:25.164Z,76.50
2023-03-04T16:28:03.000Z,35.80
2023-03-04T16:30:32.240Z,30.90
2023-03-04T16:33:00.578Z,34.40
2023-03-04T16:35:29.902Z,46.90
2023-03-04T16:37:58.885Z,43.50
2023-03-04T16:40:30.025Z,50.30
2023-03-04T16:42:58.421Z,35.40
2023-03-04T16:45:31.852Z,28.80
2023-03-04T16:48:00.304Z,31.90
2023-03-04T16:50:30.102Z,26.00
2023-03-04T16:52:58.395Z,21.90
2023-03-04T16:55:29.230Z,36.80
2023-03-04T16:57:58.443Z,28.90
2023-03-04T17:00:28.910Z,54.60
2023-03-04T17:03:00.371Z,36.80
2023-03-04T17:05:31.897Z,29.30
2023-03-04T17:08:00.163Z,33.60
2023-03-04T17:10:28.654Z,28.40
2023-03-04T17:12:57.179Z,26.90
2023-03-04T17:15:25.522Z,34.70
2023-03-04T17:17:54.116Z,32.90
2023-03-04T17:20:23.065Z,40.60
2023-03-04T17:22:51.394Z,28.70
2023-03-04T17:25:19.796Z,28.90
2023-03-04T17:27:48.051Z,28.80
2023-03-04T17:30:17.090Z,30.50
2023-03-04T17:32:45.546Z,32.50
2023-03-04T17:35:14.228Z,27.40
2023-03-04T17:37:42.717Z,22.40
2023-03-04T17:40:15.314Z,29.00
2023-03-04T17:42:44.006Z,29.40
2023-03-04T17:45:12.475Z,32.30
2023-03-04T17:47:40.968Z,33.00
2023-03-04T17:50:10.738Z,28.10
2023-03-04T17:52:54.221Z,27.50
2023-03-04T17:55:22.904Z,23.80
2023-03-04T17:57:53.253Z,26.60
2023-03-04T18:00:22.308Z,22.30
2023-03-04T18:03:20.265Z,25.40
2023-03-04T18:05:55.600Z,28.40
2023-03-04T18:08:28.521Z,24.00
2023-03-04T18:10:59.565Z,20.20
2023-03-04T18:13:28.049Z,31.60
2023-03-04T18:15:56.834Z,19.60
2023-03-04T18:18:25.328Z,30.70
2023-03-04T18:21:00.880Z,28.40
2023-03-04T18:23:29.571Z,28.40
2023-03-04T18:25:58.174Z,47.00
2023-03-04T18:28:26.552Z,37.10
2023-03-04T18:30:58.413Z,43.70
2023-03-04T18:33:28.228Z,42.00
2023-03-04T18:36:01.437Z,39.90
2023-03-04T18:38:31.453Z,38.60
2023-03-04T18:41:08.829Z,42.50
2023-03-04T18:43:37.777Z,35.50
2023-03-04T18:46:17.166Z,37.50
2023-03-04T18:48:49.027Z,42.20
2023-03-04T18:51:17.430Z,37.00
2023-03-04T18:53:46.189Z,41.00
2023-03-04T18:56:37.804Z,33.90
2023-03-04T18:59:17.872Z,35.70
2023-03-04T19:01:47.433Z,28.70
2023-03-04T19:04:18.362Z,40.70
2023-03-04T19:06:47.436Z,40.50
2023-03-04T19:09:16.130Z,45.80
2023-03-04T19:11:44.295Z,40.30
2023-03-04T19:14:13.027Z,42.00
2023-03-04T19:16:41.540Z,43.90
2023-03-04T19:19:09.810Z,34.50
2023-03-04T19:21:39.061Z,35.10
2023-03-04T19:24:08.082Z,33.10
2023-03-04T19:26:36.448Z,39.30
2023-03-04T19:29:05.958Z,39.40
2023-03-04T19:31:34.540Z,41.70
2023-03-04T19:34:02.828Z,48.70
2023-03-04T19:36:32.134Z,36.60
2023-03-04T19:39:01.344Z,46.80
2023-03-04T19:41:30.233Z,32.40
2023-03-04T19:43:58.930Z,41.80
2023-03-04T19:46:28.302Z,47.90
2023-03-04T19:48:56.816Z,59.80
2023-03-04T19:51:29.098Z,66.80
2023-03-04T19:53:57.367Z,59.00
2023-03-04T19:56:25.853Z,55.20
2023-03-04T19:58:56.292Z,57.20
2023-03-04T20:01:28.522Z,49.00
2023-03-04T20:04:04.638Z,48.40
2023-03-04T20:06:36.686Z,50.00
2023-03-04T20:09:05.670Z,57.50
2023-03-04T20:11:39.211Z,32.90
2023-03-04T20:14:12.912Z,40.80
2023-03-04T20:16:41.379Z,33.60
2023-03-04T20:19:09.964Z,57.60
2023-03-04T20:21:39.076Z,52.20
2023-03-04T20:24:07.553Z,36.30
2023-03-04T20:26:35.939Z,35.00
2023-03-04T20:29:04.225Z,39.70
2023-03-04T20:31:38.543Z,45.60
2023-03-04T20:34:08.984Z,43.10
2023-03-04T20:36:38.782Z,42.00
2023-03-04T20:39:25.787Z,38.80
2023-03-04T20:41:59.824Z,41.30
2023-03-04T20:44:28.706Z,33.50
2023-03-04T20:46:58.072Z,42.20
2023-03-04T20:49:59.957Z,46.40
2023-03-04T20:52:39.202Z,45.50
2023-03-04T20:55:29.029Z,43.30
2023-03-04T20:58:16.483Z,52.40
2023-03-04T21:00:45.080Z,40.90
2023-03-04T21:03:13.453Z,34.00
2023-03-04T21:05:41.839Z,29.30
2023-03-04T21:08:10.324Z,34.20
2023-03-04T21:10:38.525Z,27.40
2023-03-04T21:13:11.402Z,30.50
2023-03-04T21:15:47.168Z,31.90
2023-03-04T21:18:16.255Z,33.80
2023-03-04T21:20:45.450Z,28.90
2023-03-04T21:23:14.464Z,36.40
2023-03-04T21:25:42.739Z,36.50
2023-03-04T21:28:11.219Z,34.60
2023-03-04T21:30:39.604Z,35.20
2023-03-04T21:33:17.208Z,49.60
2023-03-04T21:35:48.301Z,47.20
2023-03-04T21:38:16.733Z,44.20
2023-03-04T21:40:45.426Z,43.40
2023-03-04T21:43:13.918Z,50.20
2023-03-04T21:45:42.305Z,57.00
2023-03-04T21:48:10.797Z,50.20
2023-03-04T21:50:39.500Z,55.00
2023-03-04T21:53:07.682Z,52.70
2023-03-04T21:55:36.576Z,52.40
2023-03-04T21:58:05.305Z,56.70
2023-03-04T22:00:33.575Z,55.80
2023-03-04T22:03:02.040Z,56.60
2023-03-04T22:05:30.732Z,60.20
2023-03-04T22:07:59.216Z,59.90
2023-03-04T22:10:28.730Z,60.00
2023-03-04T22:12:57.116Z,64.00
2023-03-04T22:15:25.294Z,57.00
2023-03-04T22:17:53.853Z,53.10
2023-03-04T22:20:25.235Z,51.20
2023-03-04T22:22:53.417Z,52.80
2023-03-04T22:25:21.808Z,58.20
2023-03-04T22:27:50.289Z,59.00
2023-03-04T22:30:19.103Z,54.10
2023-03-04T22:32:48.775Z,59.70
2023-03-04T22:35:18.528Z,63.40
2023-03-04T22:37:46.808Z,54.40
2023-03-04T22:40:16.524Z,56.20
2023-03-04T22:42:46.808Z,59.70
2023-03-04T22:45:17.938Z,64.60
2023-03-04T22:47:52.418Z,55.70
2023-03-04T22:50:22.313Z,62.10
2023-03-04T22:52:50.615Z,59.50
2023-03-04T22:55:20.822Z,63.00
2023-03-04T22:57:49.856Z,67.30
2023-03-04T23:00:28.251Z,66.80
2023-03-04T23:02:57.393Z,61.30
2023-03-04T23:05:26.032Z,69.30
2023-03-04T23:07:54.624Z,56.30
2023-03-04T23:10:25.258Z,55.50
2023-03-04T23:12:54.668Z,63.60
2023-03-04T23:15:24.604Z,57.80
2023-03-04T23:17:53.074Z,59.90
2023-03-04T23:20:22.078Z,61.20
2023-03-04T23:22:50.675Z,63.70
2023-03-04T23:25:18.864Z,59.50
2023-03-04T23:27:47.432Z,75.00
2023-03-04T23:30:17.353Z,61.10
2023-03-04T23:32:45.546Z,58.90
2023-03-04T23:35:13.910Z,57.60
2023-03-04T23:37:42.503Z,59.30
2023-03-04T23:40:12.014Z,60.00
2023-03-04T23:42:40.252Z,61.50
2023-03-04T23:45:09.476Z,58.50
2023-03-04T23:47:38.090Z,68.00
2023-03-04T23:50:08.863Z,56.40
2023-03-04T23:52:37.214Z,57.30
2023-03-04T23:55:06.687Z,62.30
2023-03-04T23:57:35.006Z,61.80
